Pagina principală
METAR-TAF:

METAR-TAF

Aeroporturi :

Proserpine, Australia

Latitudine: 20-29-42S, longitudine: 148-33-06E, elevație: 25 m

Observații meteo curente

Raportul a fost făcut în urmă cu 1 oră și 27 de minute, la 14:00 UTC
Vânt 4 kt de la Sud/Sud-vest
Temperatură 26°C
Umiditate 94%
Presiune 1007 hPa
Vizibilitate de 10 km sau mai mult
Nori împrăștiați la o înălțime de 2200 picior

METAR: YBPN 181400Z AUTO 21004KT 9999 // SCT022 26/25 Q1007

Ora: 01:27 (15:27 UTC)


TAF: lipsă

Observații și prognoze meteo pentru peste 4.000 de aeroporturi (rapoarte METAR și TAF).

Stațiile disponibile sunt reprezentate pe hartă prin puncte galbene și roșii.

Țineți indicatorul mouse-ului pe punctul dorit pentru a vedea denumirea stației.

Apoi, faceți clic pentru a vedea observațiile și prognozele meteorologice.

Pentru a schimba harta: Pentru mărire, faceți clic pe butoanele verzi cu cruce neagră; pentru micșorare, pe butonul verde cu o liniuță; pentru hărți învecinate, pe săgețile verzi.


METAR-TAF: